KDOV/DOV METAR and TAF weather

Enter ICAO airport designator
Station Type Date Time Source
KDOV METAR 2018/01/16 09:16 UTC NOAA

KDOV 160916Z AUTO 02003KT 10SM SCT015 BKN021 BKN031 M02/M02 A3045 RMK AO2 CIG 015V021 CIG 019 RWY19 SLP315 $


Station Type Date Time Source
KDOV Decoded METAR 2018/01/16 09:16 UTC NOAA

Dover Air Force Base, DE, United States (KDOV) 39-08N 075-28W
Jan 16, 2018 - 04:16 AM EST / 2018.01.16 0916 UTC
Wind: from the NNE (020 degrees) at 3 MPH (3 KT):0
Visibility: 10 mile(s):0
Sky conditions: mostly cloudy
Temperature: 28 F (-2 C)
Dew Point: 28 F (-2 C)
Relative Humidity: 100%
Pressure (altimeter): 30.45 in. Hg (1031 hPa)
ob: KDOV 160916Z AUTO 02003KT 10SM SCT015 BKN021 BKN031 M02/M02 A3045 RMK AO2 CIG 015V021 CIG 019 RWY19 SLP315
cycle: 9

Station Type Date Time Source
KDOV TAF 2018/01/16 08:08 UTC NOAA

TAF KDOV 160800Z 1608/1714 VRB06KT 9999 SCT015 BKN030 620301 QNH3044INS
BECMG 1609/1610 07009KT 9999 OVC015 620152 QNH3028INS
BECMG 1708/1709 31012KT 9000 -SN OVC015 620159 QNH3025INS TX03/1621Z TNM03/1608Z


Example: see airport list